sensor_id;sensor_type;location;lat;lon;timestamp;temperature;humidity
53748;DHT22;39655;53.210;5.768;2023-04-25T00:00:17;6.80;86.20
53748;DHT22;39655;53.210;5.768;2023-04-25T00:02:43;6.80;86.30
53748;DHT22;39655;53.210;5.768;2023-04-25T00:05:08;6.80;86.30
53748;DHT22;39655;53.210;5.768;2023-04-25T00:07:34;6.70;86.40
53748;DHT22;39655;53.210;5.768;2023-04-25T00:10:00;6.80;84.70
53748;DHT22;39655;53.210;5.768;2023-04-25T00:12:26;6.80;83.30
53748;DHT22;39655;53.210;5.768;2023-04-25T00:14:54;6.80;81.50
53748;DHT22;39655;53.210;5.768;2023-04-25T00:17:23;6.80;81.60
53748;DHT22;39655;53.210;5.768;2023-04-25T00:19:52;6.70;82.20
53748;DHT22;39655;53.210;5.768;2023-04-25T00:22:18;6.80;80.80
53748;DHT22;39655;53.210;5.768;2023-04-25T00:24:46;6.70;81.30
53748;DHT22;39655;53.210;5.768;2023-04-25T00:27:12;6.80;81.80
53748;DHT22;39655;53.210;5.768;2023-04-25T00:29:37;6.70;82.00
53748;DHT22;39655;53.210;5.768;2023-04-25T00:32:03;6.70;81.70
53748;DHT22;39655;53.210;5.768;2023-04-25T00:34:29;6.60;80.90
53748;DHT22;39655;53.210;5.768;2023-04-25T00:36:55;6.60;80.40
53748;DHT22;39655;53.210;5.768;2023-04-25T00:39:20;6.60;79.80
53748;DHT22;39655;53.210;5.768;2023-04-25T00:41:46;6.60;79.70
53748;DHT22;39655;53.210;5.768;2023-04-25T00:44:12;6.60;79.70
53748;DHT22;39655;53.210;5.768;2023-04-25T00:46:39;6.60;79.50
53748;DHT22;39655;53.210;5.768;2023-04-25T00:49:05;6.60;79.30
53748;DHT22;39655;53.210;5.768;2023-04-25T00:51:32;6.60;79.70
53748;DHT22;39655;53.210;5.768;2023-04-25T00:53:58;6.60;79.80
53748;DHT22;39655;53.210;5.768;2023-04-25T00:56:25;6.60;79.60
53748;DHT22;39655;53.210;5.768;2023-04-25T00:58:53;6.60;80.00
53748;DHT22;39655;53.210;5.768;2023-04-25T01:01:22;6.70;79.80
53748;DHT22;39655;53.210;5.768;2023-04-25T01:03:49;6.70;80.20
53748;DHT22;39655;53.210;5.768;2023-04-25T01:06:18;6.70;80.30
53748;DHT22;39655;53.210;5.768;2023-04-25T01:08:44;6.90;81.30
53748;DHT22;39655;53.210;5.768;2023-04-25T01:11:10;6.80;81.40
53748;DHT22;39655;53.210;5.768;2023-04-25T01:13:39;6.70;82.10
53748;DHT22;39655;53.210;5.768;2023-04-25T01:16:05;6.70;81.80
53748;DHT22;39655;53.210;5.768;2023-04-25T01:18:31;6.70;81.20
53748;DHT22;39655;53.210;5.768;2023-04-25T01:21:06;6.70;81.40
53748;DHT22;39655;53.210;5.768;2023-04-25T01:23:33;6.70;81.10
53748;DHT22;39655;53.210;5.768;2023-04-25T01:25:59;6.50;79.40
53748;DHT22;39655;53.210;5.768;2023-04-25T01:28:28;6.30;78.90
53748;DHT22;39655;53.210;5.768;2023-04-25T01:30:55;6.20;79.10
53748;DHT22;39655;53.210;5.768;2023-04-25T01:33:21;6.20;79.60
53748;DHT22;39655;53.210;5.768;2023-04-25T01:35:47;6.10;80.10
53748;DHT22;39655;53.210;5.768;2023-04-25T01:38:16;6.00;80.80
53748;DHT22;39655;53.210;5.768;2023-04-25T01:40:45;5.90;81.20
53748;DHT22;39655;53.210;5.768;2023-04-25T01:43:15;5.80;81.60
53748;DHT22;39655;53.210;5.768;2023-04-25T01:45:42;5.90;81.30
53748;DHT22;39655;53.210;5.768;2023-04-25T01:48:13;5.90;81.40
53748;DHT22;39655;53.210;5.768;2023-04-25T01:50:45;6.00;81.20
53748;DHT22;39655;53.210;5.768;2023-04-25T01:53:13;6.00;81.30
53748;DHT22;39655;53.210;5.768;2023-04-25T01:55:39;6.10;81.50
53748;DHT22;39655;53.210;5.768;2023-04-25T01:58:05;6.10;81.50
53748;DHT22;39655;53.210;5.768;2023-04-25T02:00:35;6.20;81.00
53748;DHT22;39655;53.210;5.768;2023-04-25T02:03:04;6.10;80.90
53748;DHT22;39655;53.210;5.768;2023-04-25T02:05:37;6.10;80.80
53748;DHT22;39655;53.210;5.768;2023-04-25T02:08:04;6.00;81.10
53748;DHT22;39655;53.210;5.768;2023-04-25T02:10:30;6.10;76.80
53748;DHT22;39655;53.210;5.768;2023-04-25T02:12:57;6.10;76.00
53748;DHT22;39655;53.210;5.768;2023-04-25T02:15:22;6.00;75.30
53748;DHT22;39655;53.210;5.768;2023-04-25T02:17:48;6.10;75.00
53748;DHT22;39655;53.210;5.768;2023-04-25T02:20:14;6.10;75.60
53748;DHT22;39655;53.210;5.768;2023-04-25T02:22:41;6.00;76.50
53748;DHT22;39655;53.210;5.768;2023-04-25T02:25:08;5.90;77.70
53748;DHT22;39655;53.210;5.768;2023-04-25T02:27:34;5.80;78.60
53748;DHT22;39655;53.210;5.768;2023-04-25T02:30:00;5.90;79.90
53748;DHT22;39655;53.210;5.768;2023-04-25T02:32:26;5.90;80.50
53748;DHT22;39655;53.210;5.768;2023-04-25T02:34:52;5.80;81.50
53748;DHT22;39655;53.210;5.768;2023-04-25T02:37:19;5.70;82.10
53748;DHT22;39655;53.210;5.768;2023-04-25T02:39:45;5.60;82.60
53748;DHT22;39655;53.210;5.768;2023-04-25T02:42:10;5.60;82.70
53748;DHT22;39655;53.210;5.768;2023-04-25T02:44:36;5.60;82.30
53748;DHT22;39655;53.210;5.768;2023-04-25T02:47:02;5.60;82.50
53748;DHT22;39655;53.210;5.768;2023-04-25T02:49:27;5.50;82.60
53748;DHT22;39655;53.210;5.768;2023-04-25T02:51:53;5.40;82.80
53748;DHT22;39655;53.210;5.768;2023-04-25T02:54:22;5.50;83.20
53748;DHT22;39655;53.210;5.768;2023-04-25T02:56:51;5.40;83.30
53748;DHT22;39655;53.210;5.768;2023-04-25T02:59:16;5.40;83.40
53748;DHT22;39655;53.210;5.768;2023-04-25T03:01:42;5.40;83.70
53748;DHT22;39655;53.210;5.768;2023-04-25T03:04:07;5.40;83.90
53748;DHT22;39655;53.210;5.768;2023-04-25T03:06:33;5.40;84.20
53748;DHT22;39655;53.210;5.768;2023-04-25T03:08:59;5.50;84.40
53748;DHT22;39655;53.210;5.768;2023-04-25T03:11:25;5.50;84.70
53748;DHT22;39655;53.210;5.768;2023-04-25T03:13:51;5.60;84.10
53748;DHT22;39655;53.210;5.768;2023-04-25T03:16:16;5.80;81.60
53748;DHT22;39655;53.210;5.768;2023-04-25T03:18:42;5.90;79.30
53748;DHT22;39655;53.210;5.768;2023-04-25T03:21:10;6.00;78.70
53748;DHT22;39655;53.210;5.768;2023-04-25T03:23:36;5.90;78.60
53748;DHT22;39655;53.210;5.768;2023-04-25T03:26:02;6.10;76.50
53748;DHT22;39655;53.210;5.768;2023-04-25T03:28:27;6.00;76.80
53748;DHT22;39655;53.210;5.768;2023-04-25T03:30:53;5.90;75.80
53748;DHT22;39655;53.210;5.768;2023-04-25T03:33:19;5.90;76.50
53748;DHT22;39655;53.210;5.768;2023-04-25T03:35:45;5.80;76.90
53748;DHT22;39655;53.210;5.768;2023-04-25T03:38:11;5.80;77.50
53748;DHT22;39655;53.210;5.768;2023-04-25T03:40:37;5.80;77.80
53748;DHT22;39655;53.210;5.768;2023-04-25T03:43:02;5.70;78.40
53748;DHT22;39655;53.210;5.768;2023-04-25T03:45:28;5.70;78.80
53748;DHT22;39655;53.210;5.768;2023-04-25T03:47:53;5.70;78.90
53748;DHT22;39655;53.210;5.768;2023-04-25T03:50:19;5.70;78.80
53748;DHT22;39655;53.210;5.768;2023-04-25T03:52:45;5.60;78.60
53748;DHT22;39655;53.210;5.768;2023-04-25T03:55:10;5.60;78.50
53748;DHT22;39655;53.210;5.768;2023-04-25T03:57:36;5.50;78.40
53748;DHT22;39655;53.210;5.768;2023-04-25T04:00:02;5.50;78.20
53748;DHT22;39655;53.210;5.768;2023-04-25T04:02:29;5.30;78.30
53748;DHT22;39655;53.210;5.768;2023-04-25T04:04:57;5.40;77.40
53748;DHT22;39655;53.210;5.768;2023-04-25T04:07:26;5.50;77.30
53748;DHT22;39655;53.210;5.768;2023-04-25T04:09:51;5.50;76.90
53748;DHT22;39655;53.210;5.768;2023-04-25T04:12:17;5.50;76.60
53748;DHT22;39655;53.210;5.768;2023-04-25T04:14:44;5.60;76.90
53748;DHT22;39655;53.210;5.768;2023-04-25T04:17:10;5.60;77.40
53748;DHT22;39655;53.210;5.768;2023-04-25T04:19:35;5.70;77.20
53748;DHT22;39655;53.210;5.768;2023-04-25T04:22:07;5.80;77.30
53748;DHT22;39655;53.210;5.768;2023-04-25T04:24:35;5.80;76.40
53748;DHT22;39655;53.210;5.768;2023-04-25T04:27:01;5.80;75.90
53748;DHT22;39655;53.210;5.768;2023-04-25T04:29:26;5.80;76.40
53748;DHT22;39655;53.210;5.768;2023-04-25T04:31:52;5.80;76.70
53748;DHT22;39655;53.210;5.768;2023-04-25T04:34:18;5.80;76.80
53748;DHT22;39655;53.210;5.768;2023-04-25T04:36:45;5.80;77.10
53748;DHT22;39655;53.210;5.768;2023-04-25T04:39:14;6.00;76.40
53748;DHT22;39655;53.210;5.768;2023-04-25T04:41:39;6.10;76.50
53748;DHT22;39655;53.210;5.768;2023-04-25T04:44:06;6.00;77.50
53748;DHT22;39655;53.210;5.768;2023-04-25T04:46:34;6.00;76.40
53748;DHT22;39655;53.210;5.768;2023-04-25T04:49:08;6.00;76.80
53748;DHT22;39655;53.210;5.768;2023-04-25T04:51:34;5.90;77.70
53748;DHT22;39655;53.210;5.768;2023-04-25T04:54:13;5.90;77.90
53748;DHT22;39655;53.210;5.768;2023-04-25T04:56:38;5.90;77.70
53748;DHT22;39655;53.210;5.768;2023-04-25T04:59:04;6.00;77.50
53748;DHT22;39655;53.210;5.768;2023-04-25T05:01:30;5.90;77.40
53748;DHT22;39655;53.210;5.768;2023-04-25T05:03:56;5.90;78.40
53748;DHT22;39655;53.210;5.768;2023-04-25T05:06:27;5.90;78.20
53748;DHT22;39655;53.210;5.768;2023-04-25T05:08:54;5.80;79.00
53748;DHT22;39655;53.210;5.768;2023-04-25T05:11:21;5.70;79.20
53748;DHT22;39655;53.210;5.768;2023-04-25T05:13:46;5.80;78.60
53748;DHT22;39655;53.210;5.768;2023-04-25T05:16:13;5.80;78.60
53748;DHT22;39655;53.210;5.768;2023-04-25T05:18:39;5.80;78.90
53748;DHT22;39655;53.210;5.768;2023-04-25T05:21:05;5.90;78.50
53748;DHT22;39655;53.210;5.768;2023-04-25T05:23:32;5.90;78.70
53748;DHT22;39655;53.210;5.768;2023-04-25T05:25:58;6.00;78.60
53748;DHT22;39655;53.210;5.768;2023-04-25T05:28:24;6.10;78.70
53748;DHT22;39655;53.210;5.768;2023-04-25T05:30:50;6.10;78.50
53748;DHT22;39655;53.210;5.768;2023-04-25T05:33:16;6.20;78.30
53748;DHT22;39655;53.210;5.768;2023-04-25T05:35:41;6.20;78.50
53748;DHT22;39655;53.210;5.768;2023-04-25T05:38:07;6.20;78.80
53748;DHT22;39655;53.210;5.768;2023-04-25T05:40:33;6.20;79.40
53748;DHT22;39655;53.210;5.768;2023-04-25T05:43:01;6.20;79.10
53748;DHT22;39655;53.210;5.768;2023-04-25T05:45:27;6.30;79.10
53748;DHT22;39655;53.210;5.768;2023-04-25T05:47:52;6.20;78.70
53748;DHT22;39655;53.210;5.768;2023-04-25T05:50:18;6.20;77.40
53748;DHT22;39655;53.210;5.768;2023-04-25T05:52:44;6.00;77.10
53748;DHT22;39655;53.210;5.768;2023-04-25T05:55:12;5.90;77.70
53748;DHT22;39655;53.210;5.768;2023-04-25T05:57:40;5.70;78.10
53748;DHT22;39655;53.210;5.768;2023-04-25T06:00:12;5.50;78.10
53748;DHT22;39655;53.210;5.768;2023-04-25T06:02:38;5.40;77.90
53748;DHT22;39655;53.210;5.768;2023-04-25T06:05:04;5.40;78.30
53748;DHT22;39655;53.210;5.768;2023-04-25T06:07:30;5.40;79.30
53748;DHT22;39655;53.210;5.768;2023-04-25T06:09:56;5.40;80.10
53748;DHT22;39655;53.210;5.768;2023-04-25T06:12:22;5.40;80.40
53748;DHT22;39655;53.210;5.768;2023-04-25T06:14:48;5.60;80.50
53748;DHT22;39655;53.210;5.768;2023-04-25T06:17:13;5.70;80.70
53748;DHT22;39655;53.210;5.768;2023-04-25T06:19:42;5.70;80.90
53748;DHT22;39655;53.210;5.768;2023-04-25T06:22:08;5.80;81.20
53748;DHT22;39655;53.210;5.768;2023-04-25T06:24:34;6.10;81.10
53748;DHT22;39655;53.210;5.768;2023-04-25T06:27:00;6.20;81.00
53748;DHT22;39655;53.210;5.768;2023-04-25T06:29:26;6.30;79.80
53748;DHT22;39655;53.210;5.768;2023-04-25T06:31:52;6.50;80.30
53748;DHT22;39655;53.210;5.768;2023-04-25T06:34:17;6.60;80.10
53748;DHT22;39655;53.210;5.768;2023-04-25T06:36:43;6.90;79.70
53748;DHT22;39655;53.210;5.768;2023-04-25T06:39:10;6.90;79.90
53748;DHT22;39655;53.210;5.768;2023-04-25T06:41:36;6.70;81.10
53748;DHT22;39655;53.210;5.768;2023-04-25T06:44:02;6.30;84.10
53748;DHT22;39655;53.210;5.768;2023-04-25T06:46:28;6.00;86.50
53748;DHT22;39655;53.210;5.768;2023-04-25T06:48:53;5.80;87.20
53748;DHT22;39655;53.210;5.768;2023-04-25T06:51:19;5.70;88.60
53748;DHT22;39655;53.210;5.768;2023-04-25T06:53:48;5.80;89.20
53748;DHT22;39655;53.210;5.768;2023-04-25T06:56:13;6.00;89.80
53748;DHT22;39655;53.210;5.768;2023-04-25T06:58:48;6.10;89.70
53748;DHT22;39655;53.210;5.768;2023-04-25T07:01:13;6.20;88.60
53748;DHT22;39655;53.210;5.768;2023-04-25T07:03:39;6.30;88.40
53748;DHT22;39655;53.210;5.768;2023-04-25T07:06:05;6.40;87.10
53748;DHT22;39655;53.210;5.768;2023-04-25T07:08:31;6.50;86.40
53748;DHT22;39655;53.210;5.768;2023-04-25T07:11:02;6.60;86.10
53748;DHT22;39655;53.210;5.768;2023-04-25T07:13:27;6.70;81.10
53748;DHT22;39655;53.210;5.768;2023-04-25T07:15:53;6.70;79.50
53748;DHT22;39655;53.210;5.768;2023-04-25T07:18:19;6.70;79.70
53748;DHT22;39655;53.210;5.768;2023-04-25T07:20:44;6.70;80.10
53748;DHT22;39655;53.210;5.768;2023-04-25T07:23:13;6.70;78.40
53748;DHT22;39655;53.210;5.768;2023-04-25T07:25:39;6.80;79.70
53748;DHT22;39655;53.210;5.768;2023-04-25T07:28:04;6.90;78.80
53748;DHT22;39655;53.210;5.768;2023-04-25T07:30:33;7.10;77.90
53748;DHT22;39655;53.210;5.768;2023-04-25T07:33:02;7.30;78.90
53748;DHT22;39655;53.210;5.768;2023-04-25T07:35:28;7.50;78.80
53748;DHT22;39655;53.210;5.768;2023-04-25T07:37:54;7.50;75.70
53748;DHT22;39655;53.210;5.768;2023-04-25T07:40:20;7.60;76.30
53748;DHT22;39655;53.210;5.768;2023-04-25T07:42:45;7.60;75.30
53748;DHT22;39655;53.210;5.768;2023-04-25T07:45:13;7.60;76.20
53748;DHT22;39655;53.210;5.768;2023-04-25T07:47:39;7.60;75.00
53748;DHT22;39655;53.210;5.768;2023-04-25T07:50:07;7.70;75.90
53748;DHT22;39655;53.210;5.768;2023-04-25T07:52:33;7.80;74.60
53748;DHT22;39655;53.210;5.768;2023-04-25T07:55:01;8.00;72.30
53748;DHT22;39655;53.210;5.768;2023-04-25T07:57:35;8.10;72.00
53748;DHT22;39655;53.210;5.768;2023-04-25T08:00:00;8.20;69.90
53748;DHT22;39655;53.210;5.768;2023-04-25T08:02:29;8.20;69.20
53748;DHT22;39655;53.210;5.768;2023-04-25T08:04:55;8.10;68.80
53748;DHT22;39655;53.210;5.768;2023-04-25T08:07:21;8.00;70.10
53748;DHT22;39655;53.210;5.768;2023-04-25T08:09:46;8.10;71.20
53748;DHT22;39655;53.210;5.768;2023-04-25T08:12:12;8.10;71.30
53748;DHT22;39655;53.210;5.768;2023-04-25T08:14:38;8.20;70.30
53748;DHT22;39655;53.210;5.768;2023-04-25T08:17:05;8.20;69.70
53748;DHT22;39655;53.210;5.768;2023-04-25T08:19:30;8.20;69.80
53748;DHT22;39655;53.210;5.768;2023-04-25T08:21:57;8.40;70.20
53748;DHT22;39655;53.210;5.768;2023-04-25T08:24:23;8.60;69.50
53748;DHT22;39655;53.210;5.768;2023-04-25T08:26:48;8.70;70.50
53748;DHT22;39655;53.210;5.768;2023-04-25T08:29:14;8.70;69.90
53748;DHT22;39655;53.210;5.768;2023-04-25T08:31:40;8.70;69.90
53748;DHT22;39655;53.210;5.768;2023-04-25T08:34:06;8.60;70.30
53748;DHT22;39655;53.210;5.768;2023-04-25T08:36:32;8.40;71.80
53748;DHT22;39655;53.210;5.768;2023-04-25T08:38:58;8.20;68.90
53748;DHT22;39655;53.210;5.768;2023-04-25T08:41:25;8.10;68.20
53748;DHT22;39655;53.210;5.768;2023-04-25T08:43:53;8.00;70.00
53748;DHT22;39655;53.210;5.768;2023-04-25T08:46:21;8.00;71.80
53748;DHT22;39655;53.210;5.768;2023-04-25T08:48:49;8.00;72.60
53748;DHT22;39655;53.210;5.768;2023-04-25T08:51:21;8.20;71.60
53748;DHT22;39655;53.210;5.768;2023-04-25T08:53:51;8.30;70.10
53748;DHT22;39655;53.210;5.768;2023-04-25T08:56:17;8.50;67.20
53748;DHT22;39655;53.210;5.768;2023-04-25T08:59:01;8.60;65.90
53748;DHT22;39655;53.210;5.768;2023-04-25T09:01:27;8.80;66.40
53748;DHT22;39655;53.210;5.768;2023-04-25T09:03:53;9.00;68.10
53748;DHT22;39655;53.210;5.768;2023-04-25T09:06:19;9.10;67.30
53748;DHT22;39655;53.210;5.768;2023-04-25T09:08:45;9.00;67.40
53748;DHT22;39655;53.210;5.768;2023-04-25T09:11:13;9.00;66.90
53748;DHT22;39655;53.210;5.768;2023-04-25T09:13:40;8.90;67.10
53748;DHT22;39655;53.210;5.768;2023-04-25T09:16:06;8.80;68.20
53748;DHT22;39655;53.210;5.768;2023-04-25T09:18:33;8.70;70.10
53748;DHT22;39655;53.210;5.768;2023-04-25T09:21:25;8.50;71.10
53748;DHT22;39655;53.210;5.768;2023-04-25T09:23:51;8.50;69.40
53748;DHT22;39655;53.210;5.768;2023-04-25T09:26:20;8.70;67.70
53748;DHT22;39655;53.210;5.768;2023-04-25T09:28:47;8.70;67.10
53748;DHT22;39655;53.210;5.768;2023-04-25T09:31:22;8.80;65.60
53748;DHT22;39655;53.210;5.768;2023-04-25T09:33:49;8.70;66.70
53748;DHT22;39655;53.210;5.768;2023-04-25T09:36:15;8.50;67.90
53748;DHT22;39655;53.210;5.768;2023-04-25T09:38:43;8.50;69.30
53748;DHT22;39655;53.210;5.768;2023-04-25T09:41:09;8.50;69.90
53748;DHT22;39655;53.210;5.768;2023-04-25T09:43:35;8.40;69.90
53748;DHT22;39655;53.210;5.768;2023-04-25T09:46:01;8.40;73.30
53748;DHT22;39655;53.210;5.768;2023-04-25T09:48:28;8.30;75.80
53748;DHT22;39655;53.210;5.768;2023-04-25T09:51:10;8.20;75.30
53748;DHT22;39655;53.210;5.768;2023-04-25T09:53:37;8.30;76.20
53748;DHT22;39655;53.210;5.768;2023-04-25T09:56:06;8.40;73.80
53748;DHT22;39655;53.210;5.768;2023-04-25T09:58:32;8.50;73.20
53748;DHT22;39655;53.210;5.768;2023-04-25T10:01:01;8.60;70.50
53748;DHT22;39655;53.210;5.768;2023-04-25T10:03:30;8.60;70.10
53748;DHT22;39655;53.210;5.768;2023-04-25T10:05:59;8.50;71.40
53748;DHT22;39655;53.210;5.768;2023-04-25T10:08:26;8.50;69.80
53748;DHT22;39655;53.210;5.768;2023-04-25T10:10:55;8.40;69.70
53748;DHT22;39655;53.210;5.768;2023-04-25T10:13:21;8.50;71.10
53748;DHT22;39655;53.210;5.768;2023-04-25T10:15:48;8.70;67.30
53748;DHT22;39655;53.210;5.768;2023-04-25T10:18:14;9.00;65.00
53748;DHT22;39655;53.210;5.768;2023-04-25T10:20:40;9.20;65.60
53748;DHT22;39655;53.210;5.768;2023-04-25T10:23:11;9.50;63.80
53748;DHT22;39655;53.210;5.768;2023-04-25T10:25:39;9.60;64.60
53748;DHT22;39655;53.210;5.768;2023-04-25T10:28:05;9.90;71.20
53748;DHT22;39655;53.210;5.768;2023-04-25T10:30:31;9.20;75.00
53748;DHT22;39655;53.210;5.768;2023-04-25T10:32:58;8.60;77.50
53748;DHT22;39655;53.210;5.768;2023-04-25T10:35:27;8.20;77.80
53748;DHT22;39655;53.210;5.768;2023-04-25T10:38:04;8.00;77.60
53748;DHT22;39655;53.210;5.768;2023-04-25T10:40:33;7.90;77.70
53748;DHT22;39655;53.210;5.768;2023-04-25T10:46:22;7.80;76.80
53748;DHT22;39655;53.210;5.768;2023-04-25T10:48:53;8.00;76.10
53748;DHT22;39655;53.210;5.768;2023-04-25T10:51:27;8.40;70.70
53748;DHT22;39655;53.210;5.768;2023-04-25T10:54:00;8.80;70.50
53748;DHT22;39655;53.210;5.768;2023-04-25T10:59:11;9.00;64.60
53748;DHT22;39655;53.210;5.768;2023-04-25T11:01:39;9.10;66.60
53748;DHT22;39655;53.210;5.768;2023-04-25T11:04:20;9.10;64.80
53748;DHT22;39655;53.210;5.768;2023-04-25T11:09:38;9.20;68.50
53748;DHT22;39655;53.210;5.768;2023-04-25T11:12:10;9.30;66.20
53748;DHT22;39655;53.210;5.768;2023-04-25T11:14:39;9.40;65.30
53748;DHT22;39655;53.210;5.768;2023-04-25T11:17:05;9.70;66.10
53748;DHT22;39655;53.210;5.768;2023-04-25T11:19:31;10.00;65.00
53748;DHT22;39655;53.210;5.768;2023-04-25T11:21:58;10.10;66.20
53748;DHT22;39655;53.210;5.768;2023-04-25T11:24:34;10.10;66.80
53748;DHT22;39655;53.210;5.768;2023-04-25T11:27:02;9.90;67.10
53748;DHT22;39655;53.210;5.768;2023-04-25T11:29:32;9.90;66.00
53748;DHT22;39655;53.210;5.768;2023-04-25T11:31:58;9.80;65.70
53748;DHT22;39655;53.210;5.768;2023-04-25T11:34:27;9.90;66.70
53748;DHT22;39655;53.210;5.768;2023-04-25T11:36:53;9.80;64.60
53748;DHT22;39655;53.210;5.768;2023-04-25T11:39:20;9.50;64.60
53748;DHT22;39655;53.210;5.768;2023-04-25T11:41:46;9.20;67.30
53748;DHT22;39655;53.210;5.768;2023-04-25T11:44:15;9.20;69.40
53748;DHT22;39655;53.210;5.768;2023-04-25T11:46:42;9.60;68.70
53748;DHT22;39655;53.210;5.768;2023-04-25T11:51:47;9.90;61.30
53748;DHT22;39655;53.210;5.768;2023-04-25T11:54:14;10.40;61.10
53748;DHT22;39655;53.210;5.768;2023-04-25T11:56:45;10.80;61.30
53748;DHT22;39655;53.210;5.768;2023-04-25T11:59:10;10.90;61.60
53748;DHT22;39655;53.210;5.768;2023-04-25T12:01:41;10.50;57.90
53748;DHT22;39655;53.210;5.768;2023-04-25T12:04:20;10.30;56.80
53748;DHT22;39655;53.210;5.768;2023-04-25T12:06:50;10.10;56.60
53748;DHT22;39655;53.210;5.768;2023-04-25T12:09:21;10.00;56.60
53748;DHT22;39655;53.210;5.768;2023-04-25T12:11:54;10.30;58.00
53748;DHT22;39655;53.210;5.768;2023-04-25T12:14:30;10.30;56.30
53748;DHT22;39655;53.210;5.768;2023-04-25T12:16:56;10.90;56.10
53748;DHT22;39655;53.210;5.768;2023-04-25T12:19:23;11.30;56.10
53748;DHT22;39655;53.210;5.768;2023-04-25T12:21:50;11.80;55.40
53748;DHT22;39655;53.210;5.768;2023-04-25T12:24:24;12.10;51.20
53748;DHT22;39655;53.210;5.768;2023-04-25T12:27:03;12.00;51.60
53748;DHT22;39655;53.210;5.768;2023-04-25T12:29:31;12.10;54.50
53748;DHT22;39655;53.210;5.768;2023-04-25T12:31:57;12.00;55.20
53748;DHT22;39655;53.210;5.768;2023-04-25T12:34:24;12.10;55.80
53748;DHT22;39655;53.210;5.768;2023-04-25T12:36:51;12.10;58.90
53748;DHT22;39655;53.210;5.768;2023-04-25T12:39:17;12.40;56.50
53748;DHT22;39655;53.210;5.768;2023-04-25T12:41:45;12.20;54.80
53748;DHT22;39655;53.210;5.768;2023-04-25T12:44:11;11.70;53.80
53748;DHT22;39655;53.210;5.768;2023-04-25T12:46:37;11.40;55.40
53748;DHT22;39655;53.210;5.768;2023-04-25T12:49:04;11.60;55.00
53748;DHT22;39655;53.210;5.768;2023-04-25T12:51:30;11.80;53.70
53748;DHT22;39655;53.210;5.768;2023-04-25T12:54:01;11.90;54.90
53748;DHT22;39655;53.210;5.768;2023-04-25T12:56:27;11.60;54.00
53748;DHT22;39655;53.210;5.768;2023-04-25T12:58:54;11.10;55.30
53748;DHT22;39655;53.210;5.768;2023-04-25T13:01:23;11.20;56.40
53748;DHT22;39655;53.210;5.768;2023-04-25T13:03:50;10.80;57.50
53748;DHT22;39655;53.210;5.768;2023-04-25T13:06:17;10.40;57.90
53748;DHT22;39655;53.210;5.768;2023-04-25T13:08:43;10.20;58.20
53748;DHT22;39655;53.210;5.768;2023-04-25T13:11:09;10.10;57.80
53748;DHT22;39655;53.210;5.768;2023-04-25T13:13:35;10.70;54.90
53748;DHT22;39655;53.210;5.768;2023-04-25T13:16:02;11.40;54.20
53748;DHT22;39655;53.210;5.768;2023-04-25T13:18:31;12.10;53.00
53748;DHT22;39655;53.210;5.768;2023-04-25T13:20:58;12.60;51.80
53748;DHT22;39655;53.210;5.768;2023-04-25T13:23:26;12.80;48.70
53748;DHT22;39655;53.210;5.768;2023-04-25T13:25:52;12.50;49.80
53748;DHT22;39655;53.210;5.768;2023-04-25T13:28:17;12.70;49.70
53748;DHT22;39655;53.210;5.768;2023-04-25T13:30:43;12.80;50.20
53748;DHT22;39655;53.210;5.768;2023-04-25T13:33:09;12.90;49.50
53748;DHT22;39655;53.210;5.768;2023-04-25T13:35:36;12.70;47.40
53748;DHT22;39655;53.210;5.768;2023-04-25T13:38:02;12.90;48.70
53748;DHT22;39655;53.210;5.768;2023-04-25T13:40:28;13.30;48.40
53748;DHT22;39655;53.210;5.768;2023-04-25T13:42:55;13.50;49.50
53748;DHT22;39655;53.210;5.768;2023-04-25T13:45:21;13.40;51.40
53748;DHT22;39655;53.210;5.768;2023-04-25T13:47:47;12.40;55.00
53748;DHT22;39655;53.210;5.768;2023-04-25T13:50:13;11.80;56.10
53748;DHT22;39655;53.210;5.768;2023-04-25T13:52:39;11.30;57.80
53748;DHT22;39655;53.210;5.768;2023-04-25T13:55:06;10.50;59.70
53748;DHT22;39655;53.210;5.768;2023-04-25T13:57:33;9.80;61.90
53748;DHT22;39655;53.210;5.768;2023-04-25T13:59:59;9.20;63.80
53748;DHT22;39655;53.210;5.768;2023-04-25T14:02:30;8.90;65.20
53748;DHT22;39655;53.210;5.768;2023-04-25T14:04:58;9.60;66.30
53748;DHT22;39655;53.210;5.768;2023-04-25T14:07:24;10.70;63.00
53748;DHT22;39655;53.210;5.768;2023-04-25T14:09:50;10.80;62.40
53748;DHT22;39655;53.210;5.768;2023-04-25T14:12:16;10.80;62.80
53748;DHT22;39655;53.210;5.768;2023-04-25T14:14:42;11.00;59.20
53748;DHT22;39655;53.210;5.768;2023-04-25T14:17:08;10.90;57.40
53748;DHT22;39655;53.210;5.768;2023-04-25T14:19:34;11.00;58.20
53748;DHT22;39655;53.210;5.768;2023-04-25T14:22:00;10.90;59.60
53748;DHT22;39655;53.210;5.768;2023-04-25T14:24:26;11.10;59.30
53748;DHT22;39655;53.210;5.768;2023-04-25T14:26:51;11.30;58.70
53748;DHT22;39655;53.210;5.768;2023-04-25T14:29:17;11.00;57.70
53748;DHT22;39655;53.210;5.768;2023-04-25T14:31:42;10.50;58.70
53748;DHT22;39655;53.210;5.768;2023-04-25T14:34:08;10.20;61.70
53748;DHT22;39655;53.210;5.768;2023-04-25T14:36:35;10.10;61.00
53748;DHT22;39655;53.210;5.768;2023-04-25T14:39:00;10.20;60.10
53748;DHT22;39655;53.210;5.768;2023-04-25T14:41:27;10.30;57.80
53748;DHT22;39655;53.210;5.768;2023-04-25T14:43:52;10.50;58.90
53748;DHT22;39655;53.210;5.768;2023-04-25T14:46:19;10.70;58.10
53748;DHT22;39655;53.210;5.768;2023-04-25T14:48:45;11.10;56.70
53748;DHT22;39655;53.210;5.768;2023-04-25T14:51:12;11.10;58.50
53748;DHT22;39655;53.210;5.768;2023-04-25T14:53:39;10.90;60.30
53748;DHT22;39655;53.210;5.768;2023-04-25T14:56:05;10.60;61.60
53748;DHT22;39655;53.210;5.768;2023-04-25T14:58:31;10.10;62.30
53748;DHT22;39655;53.210;5.768;2023-04-25T15:00:57;10.60;62.40
53748;DHT22;39655;53.210;5.768;2023-04-25T15:03:22;11.70;59.90
53748;DHT22;39655;53.210;5.768;2023-04-25T15:05:48;12.60;53.80
53748;DHT22;39655;53.210;5.768;2023-04-25T15:08:14;12.60;52.80
53748;DHT22;39655;53.210;5.768;2023-04-25T15:10:40;12.40;52.80
53748;DHT22;39655;53.210;5.768;2023-04-25T15:13:05;11.70;54.00
53748;DHT22;39655;53.210;5.768;2023-04-25T15:15:31;11.10;56.60
53748;DHT22;39655;53.210;5.768;2023-04-25T15:17:57;10.60;59.50
53748;DHT22;39655;53.210;5.768;2023-04-25T15:20:23;10.20;58.50
53748;DHT22;39655;53.210;5.768;2023-04-25T15:22:48;10.10;59.40
53748;DHT22;39655;53.210;5.768;2023-04-25T15:25:15;9.80;65.70
53748;DHT22;39655;53.210;5.768;2023-04-25T15:27:44;9.10;70.20
53748;DHT22;39655;53.210;5.768;2023-04-25T15:30:13;9.00;71.50
53748;DHT22;39655;53.210;5.768;2023-04-25T15:32:44;8.70;72.70
53748;DHT22;39655;53.210;5.768;2023-04-25T15:35:11;8.50;74.70
53748;DHT22;39655;53.210;5.768;2023-04-25T15:37:37;9.00;76.30
53748;DHT22;39655;53.210;5.768;2023-04-25T15:40:05;10.30;75.90
53748;DHT22;39655;53.210;5.768;2023-04-25T15:42:38;10.70;69.00
53748;DHT22;39655;53.210;5.768;2023-04-25T15:45:05;10.30;65.70
53748;DHT22;39655;53.210;5.768;2023-04-25T15:47:33;10.30;65.30
53748;DHT22;39655;53.210;5.768;2023-04-25T15:49:59;10.80;62.00
53748;DHT22;39655;53.210;5.768;2023-04-25T15:52:26;11.10;60.60